Time;durP1;ratioP1;P1;durP2;ratioP2;P2;SDS_P1;SDS_P2;PMS_P1;PMS_P2;Temp;Humidity;BMP_temperature;BMP_pressure;BME280_temperature;BME280_humidity;BME280_pressure;Samples;Min_cycle;Max_cycle;Signal;HPM_P1;HPM_P2
2022/12/01 00:01:07;;;;;;;27.52;15.70;;;6.10;72.90;;;;;;5031785;28;20057;-62
2022/12/01 00:03:33;;;;;;;30.58;16.13;;;6.10;72.30;;;;;;5041700;28;20081;-61
2022/12/01 00:06:04;;;;;;;26.23;15.48;;;6.10;72.20;;;;;;5035577;28;20398;-61
2022/12/01 00:08:30;;;;;;;28.83;15.52;;;6.10;72.10;;;;;;5038349;28;20036;-60
2022/12/01 00:11:11;;;;;;;27.67;15.73;;;6.10;72.30;;;;;;5033574;28;20030;-59
2022/12/01 00:13:37;;;;;;;24.98;14.82;;;6.10;72.40;;;;;;5034456;28;20512;-61
2022/12/01 00:16:15;;;;;;;32.92;16.67;;;6.00;72.30;;;;;;5038841;28;20017;-63
2022/12/01 00:18:41;;;;;;;26.80;15.98;;;6.00;72.10;;;;;;5038271;28;20060;-60
2022/12/01 00:21:13;;;;;;;28.35;15.77;;;6.00;72.20;;;;;;5043011;28;20038;-62
2022/12/01 00:23:49;;;;;;;27.73;15.68;;;5.90;72.80;;;;;;5038370;28;20033;-62
2022/12/01 00:26:17;;;;;;;28.45;15.55;;;5.90;72.10;;;;;;5044125;28;20036;-62
2022/12/01 00:28:42;;;;;;;26.25;15.75;;;5.90;72.20;;;;;;5024772;28;20713;-61
2022/12/01 00:31:10;;;;;;;32.58;16.88;;;5.90;72.40;;;;;;5038753;28;20116;-62
2022/12/01 00:33:36;;;;;;;27.63;16.63;;;5.90;72.50;;;;;;5040975;28;20108;-62
2022/12/01 00:36:02;;;;;;;30.10;16.55;;;5.80;72.40;;;;;;5047845;28;20021;-62
2022/12/01 00:38:28;;;;;;;27.23;16.48;;;5.80;72.30;;;;;;5038691;28;20051;-61
2022/12/01 00:40:54;;;;;;;27.80;16.38;;;5.80;72.30;;;;;;5040331;28;20073;-62
2022/12/01 00:43:19;;;;;;;30.35;17.08;;;5.80;72.40;;;;;;5048086;28;20025;-62
2022/12/01 00:45:45;;;;;;;32.05;16.90;;;5.80;72.50;;;;;;5045739;28;20025;-62
2022/12/01 00:48:11;;;;;;;23.13;15.35;;;5.70;72.50;;;;;;5048077;28;20036;-62
2022/12/01 00:50:37;;;;;;;26.25;15.55;;;5.70;72.40;;;;;;5041301;28;20017;-62
2022/12/01 00:53:02;;;;;;;31.08;16.05;;;5.70;72.50;;;;;;5040968;28;20052;-63
2022/12/01 00:55:28;;;;;;;28.23;15.70;;;5.70;72.50;;;;;;5049823;28;20029;-62
2022/12/01 00:57:53;;;;;;;30.38;16.63;;;5.70;72.60;;;;;;5045017;28;20032;-62
2022/12/01 01:00:19;;;;;;;29.65;16.77;;;5.70;72.70;;;;;;5035912;28;20053;-62
2022/12/01 01:02:45;;;;;;;30.48;16.70;;;5.70;72.70;;;;;;5042554;28;20068;-62
2022/12/01 01:05:11;;;;;;;26.85;15.80;;;5.70;72.60;;;;;;5043083;28;20029;-62
2022/12/01 01:07:36;;;;;;;27.20;16.65;;;5.70;72.60;;;;;;5045910;28;20037;-62
2022/12/01 01:10:02;;;;;;;29.65;17.27;;;5.60;72.50;;;;;;5035180;28;20058;-62
2022/12/01 01:12:28;;;;;;;29.33;16.17;;;5.70;72.60;;;;;;5025121;28;20052;-62
2022/12/01 01:14:54;;;;;;;32.17;16.95;;;5.60;72.60;;;;;;5035609;28;20080;-63
2022/12/01 01:17:19;;;;;;;26.10;15.93;;;5.60;72.70;;;;;;5038944;28;20037;-62
2022/12/01 01:19:45;;;;;;;28.20;16.65;;;5.60;72.90;;;;;;5037178;28;20081;-62
2022/12/01 01:22:11;;;;;;;28.92;15.93;;;5.60;73.00;;;;;;5041145;28;20042;-62
2022/12/01 01:24:36;;;;;;;28.00;16.17;;;5.60;73.00;;;;;;5038928;28;20033;-63
2022/12/01 01:27:04;;;;;;;28.23;15.82;;;5.60;73.00;;;;;;5049227;28;20064;-62
2022/12/01 01:29:30;;;;;;;27.95;15.93;;;5.70;73.10;;;;;;5042763;28;20025;-62
2022/12/01 01:31:56;;;;;;;30.95;16.42;;;5.70;73.00;;;;;;5036824;28;20068;-61
2022/12/01 01:34:22;;;;;;;28.27;15.88;;;5.70;73.10;;;;;;5044921;28;20021;-62
2022/12/01 01:36:48;;;;;;;30.13;17.38;;;5.70;73.00;;;;;;5036258;28;20040;-62
2022/12/01 01:39:14;;;;;;;28.20;16.30;;;5.70;73.00;;;;;;5048743;28;20112;-62
2022/12/01 01:41:40;;;;;;;29.40;16.50;;;5.70;73.00;;;;;;5037431;28;20073;-61
2022/12/01 01:44:43;;;;;;;31.65;16.70;;;5.70;72.90;;;;;;5039183;28;20069;-61
2022/12/01 01:47:09;;;;;;;29.60;16.33;;;5.70;72.90;;;;;;5037500;28;20059;-62
2022/12/01 01:49:35;;;;;;;28.40;16.23;;;5.80;72.90;;;;;;5036553;28;20036;-60
2022/12/01 01:52:03;;;;;;;30.45;16.23;;;5.80;72.90;;;;;;5034641;28;20057;-60
2022/12/01 01:54:39;;;;;;;30.20;17.30;;;5.80;72.90;;;;;;5041521;28;20163;-60
2022/12/01 01:57:08;;;;;;;27.25;15.57;;;5.80;72.80;;;;;;5041037;28;20053;-61
2022/12/01 01:59:42;;;;;;;29.08;16.90;;;5.80;72.80;;;;;;5041659;28;20017;-63
2022/12/01 02:02:09;;;;;;;28.27;15.90;;;5.70;72.70;;;;;;5045034;28;20069;-61
2022/12/01 02:04:39;;;;;;;26.52;15.32;;;5.80;72.90;;;;;;5043278;28;20013;-61
2022/12/01 02:07:06;;;;;;;28.30;15.73;;;5.70;72.90;;;;;;5039562;28;20089;-62
2022/12/01 02:09:31;;;;;;;28.48;16.35;;;5.70;72.90;;;;;;5040542;28;20440;-62
2022/12/01 02:12:12;;;;;;;32.60;16.58;;;5.80;72.90;;;;;;5044633;28;20084;-62
2022/12/01 02:14:54;;;;;;;29.15;16.25;;;5.70;72.80;;;;;;5040529;28;20108;-63
2022/12/01 02:17:56;;;;;;;26.10;15.90;;;5.70;72.80;;;;;;5046686;28;20025;-62
2022/12/01 02:20:44;;;;;;;25.42;14.90;;;5.70;72.70;;;;;;5046314;28;20025;-63
2022/12/01 02:23:16;;;;;;;28.33;16.13;;;5.70;72.80;;;;;;5040541;28;20041;-62
2022/12/01 02:25:50;;;;;;;27.00;15.98;;;5.70;72.90;;;;;;5035378;28;20041;-62
2022/12/01 02:28:38;;;;;;;29.23;16.48;;;5.70;72.90;;;;;;5038571;28;20040;-61
2022/12/01 02:31:23;;;;;;;27.98;15.93;;;5.70;72.80;;;;;;5038385;28;20037;-62
2022/12/01 02:34:24;;;;;;;30.25;14.98;;;5.70;72.80;;;;;;5034939;28;20029;-62
2022/12/01 02:36:56;;;;;;;27.95;15.40;;;5.70;72.70;;;;;;5034069;28;20497;-62
2022/12/01 02:39:50;;;;;;;26.65;15.65;;;5.70;72.70;;;;;;5032075;28;20112;-62
2022/12/01 02:42:48;;;;;;;27.47;15.63;;;5.70;72.50;;;;;;5031651;28;20262;-62
2022/12/01 02:45:20;;;;;;;30.52;16.73;;;5.70;72.50;;;;;;5041562;28;20029;-62
2022/12/01 02:47:51;;;;;;;26.02;14.90;;;5.70;72.60;;;;;;5043888;28;20033;-62
2022/12/01 02:50:17;;;;;;;25.42;14.75;;;5.60;72.60;;;;;;5041717;28;20057;-62
2022/12/01 02:52:43;;;;;;;26.63;15.68;;;5.60;72.80;;;;;;5045528;28;20081;-62
2022/12/01 02:55:08;;;;;;;31.52;16.23;;;5.60;73.00;;;;;;5044632;28;20040;-62
2022/12/01 02:57:34;;;;;;;29.40;16.05;;;5.60;73.10;;;;;;5041945;28;20033;-62
2022/12/01 03:00:01;;;;;;;29.13;16.85;;;5.60;73.00;;;;;;5039328;28;20028;-62
2022/12/01 03:02:32;;;;;;;26.58;15.75;;;5.60;73.10;;;;;;5035591;28;20034;-62
2022/12/01 03:05:23;;;;;;;28.35;16.55;;;5.60;73.00;;;;;;5035636;28;20025;-62
2022/12/01 03:08:12;;;;;;;32.30;16.73;;;5.60;72.90;;;;;;5040915;28;20045;-61
2022/12/01 03:10:51;;;;;;;29.63;17.15;;;5.60;73.00;;;;;;5043636;28;20049;-61
2022/12/01 03:13:49;;;;;;;38.45;17.60;;;5.60;73.00;;;;;;5039270;28;20021;-62
2022/12/01 03:16:54;;;;;;;30.90;16.85;;;5.60;73.20;;;;;;5043655;28;20021;-61
2022/12/01 03:19:30;;;;;;;30.08;16.25;;;5.60;73.40;;;;;;5032251;28;20053;-62
2022/12/01 03:22:21;;;;;;;31.45;16.60;;;5.60;73.40;;;;;;5036943;28;20052;-62
2022/12/01 03:24:49;;;;;;;30.92;16.98;;;5.60;73.60;;;;;;5038588;28;20081;-61
2022/12/01 03:27:19;;;;;;;35.63;18.40;;;5.60;73.50;;;;;;5035219;28;20041;-62
2022/12/01 03:29:49;;;;;;;31.80;18.63;;;5.60;73.40;;;;;;5044224;28;20089;-61
2022/12/01 03:32:23;;;;;;;32.40;18.50;;;5.60;73.50;;;;;;5032703;28;20037;-61
2022/12/01 03:34:59;;;;;;;33.33;18.45;;;5.60;73.50;;;;;;5034891;28;20029;-61
2022/12/01 03:37:36;;;;;;;36.75;19.58;;;5.50;73.40;;;;;;5044799;28;20046;-61
2022/12/01 03:40:07;;;;;;;31.13;18.15;;;5.50;73.40;;;;;;5035214;28;20452;-62
2022/12/01 03:42:37;;;;;;;34.08;18.63;;;5.50;73.40;;;;;;5037530;28;20120;-62
2022/12/01 03:45:10;;;;;;;35.45;19.63;;;5.50;73.50;;;;;;5043652;28;20054;-62
2022/12/01 03:47:39;;;;;;;37.20;18.80;;;5.50;73.60;;;;;;5033227;28;20361;-63
2022/12/01 03:50:09;;;;;;;32.65;18.35;;;5.50;73.50;;;;;;5036901;28;20029;-61
2022/12/01 03:52:43;;;;;;;36.72;18.25;;;5.40;73.60;;;;;;5037236;28;20041;-62
2022/12/01 03:55:25;;;;;;;40.00;17.88;;;5.40;73.80;;;;;;5038528;28;20044;-61
2022/12/01 03:58:09;;;;;;;31.08;17.25;;;5.40;73.80;;;;;;5021901;28;20033;-61
2022/12/01 04:00:36;;;;;;;31.38;17.48;;;5.40;73.80;;;;;;5043746;28;20033;-61
2022/12/01 04:03:03;;;;;;;30.73;16.45;;;5.50;73.90;;;;;;5036839;28;20068;-61
2022/12/01 04:05:31;;;;;;;30.05;16.58;;;5.50;74.00;;;;;;5042202;28;20174;-62
2022/12/01 04:07:57;;;;;;;32.10;17.40;;;5.50;74.10;;;;;;5037513;28;20029;-62
2022/12/01 04:10:23;;;;;;;31.00;18.08;;;5.50;74.10;;;;;;5047618;28;20040;-61
2022/12/01 04:12:49;;;;;;;32.63;17.30;;;5.50;74.10;;;;;;5033996;28;20025;-61
2022/12/01 04:15:15;;;;;;;34.17;17.40;;;5.50;74.00;;;;;;5040037;28;20060;-61
2022/12/01 04:17:52;;;;;;;30.63;17.58;;;5.50;74.20;;;;;;5039725;28;20029;-61
2022/12/01 04:20:18;;;;;;;31.88;17.63;;;5.50;74.20;;;;;;5038327;28;20026;-61
2022/12/01 04:22:44;;;;;;;36.25;18.42;;;5.60;74.90;;;;;;5044591;28;20033;-61
2022/12/01 04:25:10;;;;;;;27.80;16.05;;;5.60;74.10;;;;;;5038846;28;20032;-61
2022/12/01 04:27:36;;;;;;;30.20;18.45;;;5.60;74.00;;;;;;5036804;28;20030;-61
2022/12/01 04:30:02;;;;;;;33.05;18.05;;;5.60;74.10;;;;;;5036921;28;20040;-60
2022/12/01 04:32:28;;;;;;;30.92;17.17;;;5.60;74.00;;;;;;5032160;28;20052;-61
2022/12/01 04:34:54;;;;;;;33.67;17.30;;;5.60;74.10;;;;;;5021106;28;20026;-61
2022/12/01 04:37:20;;;;;;;33.80;17.60;;;5.60;74.10;;;;;;5034851;28;20517;-60
2022/12/01 04:39:45;;;;;;;32.53;17.95;;;5.60;74.20;;;;;;5048222;28;20100;-60
2022/12/01 04:42:11;;;;;;;34.70;18.55;;;5.60;74.20;;;;;;5043521;28;20123;-60
2022/12/01 04:44:37;;;;;;;31.60;17.73;;;5.50;74.10;;;;;;5031133;28;20022;-62
2022/12/01 04:47:04;;;;;;;33.40;19.08;;;5.60;74.00;;;;;;5033070;28;20026;-60
2022/12/01 04:49:30;;;;;;;31.58;18.33;;;5.60;74.00;;;;;;5043570;28;20028;-61
2022/12/01 04:51:56;;;;;;;32.83;19.20;;;5.60;74.20;;;;;;5023235;28;20028;-61
2022/12/01 04:54:22;;;;;;;30.88;17.75;;;5.60;74.00;;;;;;5021722;28;20034;-62
2022/12/01 04:56:48;;;;;;;33.13;18.25;;;5.60;73.90;;;;;;5042400;28;20030;-63
2022/12/01 04:59:14;;;;;;;32.50;17.73;;;5.60;74.00;;;;;;5036926;28;20025;-63
2022/12/01 05:01:40;;;;;;;33.10;18.08;;;5.60;74.00;;;;;;5048452;28;20045;-61
2022/12/01 05:04:05;;;;;;;30.85;17.85;;;5.60;74.10;;;;;;5035837;28;20033;-63
2022/12/01 05:06:31;;;;;;;31.48;17.58;;;5.60;74.10;;;;;;5041109;28;20138;-61
2022/12/01 05:09:00;;;;;;;33.50;18.02;;;5.60;74.10;;;;;;5036136;28;20025;-62
2022/12/01 05:11:27;;;;;;;37.22;18.50;;;5.60;74.10;;;;;;5047986;28;20025;-62
2022/12/01 05:13:53;;;;;;;31.52;18.67;;;5.60;74.10;;;;;;5045756;28;20036;-63
2022/12/01 05:16:31;;;;;;;34.05;19.27;;;5.60;74.10;;;;;;5044874;28;20045;-61
2022/12/01 05:21:48;;;;;;;33.80;18.67;;;5.60;74.00;;;;;;5035150;28;20040;-62
2022/12/01 05:24:15;;;;;;;31.48;18.48;;;5.70;73.90;;;;;;5038081;28;20489;-62
2022/12/01 05:26:42;;;;;;;33.00;18.45;;;5.60;73.80;;;;;;5041596;28;20384;-61
2022/12/01 05:29:08;;;;;;;35.50;19.13;;;5.60;73.80;;;;;;5054478;28;20053;-62
2022/12/01 05:31:34;;;;;;;30.17;17.52;;;5.60;73.90;;;;;;5015770;28;20740;-61
2022/12/01 05:34:00;;;;;;;31.73;18.00;;;5.60;73.90;;;;;;5040716;28;20481;-61
2022/12/01 05:36:25;;;;;;;32.75;17.40;;;5.60;74.60;;;;;;5048066;28;20052;-62
2022/12/01 05:38:51;;;;;;;31.85;18.23;;;5.60;74.10;;;;;;5047801;28;20017;-61
2022/12/01 05:41:17;;;;;;;32.75;19.02;;;5.60;74.10;;;;;;5048126;28;20508;-61
2022/12/01 05:43:43;;;;;;;29.88;16.60;;;5.60;74.10;;;;;;5022556;28;20025;-61
2022/12/01 05:46:08;;;;;;;32.55;18.58;;;5.70;74.10;;;;;;5045828;28;20021;-61
2022/12/01 05:48:34;;;;;;;35.80;18.83;;;5.70;74.20;;;;;;5044708;28;20091;-61
2022/12/01 05:51:07;;;;;;;32.28;16.92;;;5.70;74.10;;;;;;5047654;28;20052;-60
2022/12/01 05:53:33;;;;;;;32.67;17.58;;;5.70;74.10;;;;;;5022474;28;20025;-61
2022/12/01 05:55:58;;;;;;;32.15;17.25;;;5.70;74.10;;;;;;5043142;28;20100;-60
2022/12/01 05:58:24;;;;;;;31.42;17.77;;;5.70;74.10;;;;;;5040174;28;20041;-60
2022/12/01 06:00:50;;;;;;;31.52;18.42;;;5.80;74.10;;;;;;5036826;28;20020;-61
2022/12/01 06:03:15;;;;;;;33.42;18.38;;;5.80;74.00;;;;;;5043729;28;20097;-62
2022/12/01 06:05:41;;;;;;;30.83;18.35;;;5.70;73.90;;;;;;5045048;28;20033;-62
2022/12/01 06:08:07;;;;;;;32.97;18.25;;;5.80;73.80;;;;;;5041445;28;20044;-62
2022/12/01 06:10:33;;;;;;;34.03;18.85;;;5.80;73.90;;;;;;5041176;28;20109;-62
2022/12/01 06:12:59;;;;;;;32.63;18.77;;;5.80;73.90;;;;;;5038841;28;20513;-62
2022/12/01 06:15:25;;;;;;;32.63;18.98;;;5.80;73.90;;;;;;5040657;28;20040;-60
2022/12/01 06:17:58;;;;;;;31.00;17.27;;;5.80;74.00;;;;;;4993479;28;20032;-60
2022/12/01 06:20:24;;;;;;;34.05;18.17;;;5.80;74.00;;;;;;5036693;28;20044;-61
2022/12/01 06:22:49;;;;;;;32.53;18.48;;;5.80;73.90;;;;;;5044227;28;20034;-60
2022/12/01 06:25:15;;;;;;;32.83;17.95;;;5.90;74.00;;;;;;5040140;28;20034;-61
2022/12/01 06:27:41;;;;;;;29.33;17.90;;;5.90;73.90;;;;;;5041637;28;20021;-60
2022/12/01 06:30:07;;;;;;;32.25;17.63;;;5.90;74.20;;;;;;5042227;28;20029;-60
2022/12/01 06:32:33;;;;;;;32.08;17.90;;;5.90;73.80;;;;;;5044897;28;20033;-60
2022/12/01 06:34:59;;;;;;;31.73;18.33;;;5.90;73.90;;;;;;5034887;28;20041;-62
2022/12/01 06:37:26;;;;;;;30.95;17.73;;;5.90;74.00;;;;;;5028920;28;20040;-60
2022/12/01 06:39:52;;;;;;;27.45;16.30;;;5.90;74.00;;;;;;5040556;28;20029;-62
2022/12/01 06:42:17;;;;;;;31.85;16.55;;;5.90;74.00;;;;;;5042349;28;20394;-60
2022/12/01 06:44:43;;;;;;;32.05;17.23;;;5.90;73.80;;;;;;5047244;28;20040;-60
2022/12/01 06:47:09;;;;;;;29.83;16.63;;;6.00;73.70;;;;;;5038461;28;20045;-61
2022/12/01 06:49:35;;;;;;;31.00;17.23;;;6.00;73.80;;;;;;5041645;28;20156;-62
2022/12/01 06:52:01;;;;;;;35.42;17.90;;;6.00;73.70;;;;;;5047817;28;20029;-61
2022/12/01 06:54:26;;;;;;;34.70;18.38;;;6.00;73.70;;;;;;5038379;28;20798;-60
2022/12/01 06:56:52;;;;;;;34.13;17.13;;;6.00;73.70;;;;;;5046045;28;20022;-61
2022/12/01 06:59:18;;;;;;;31.38;17.65;;;6.00;73.60;;;;;;5024973;28;20041;-60
2022/12/01 07:01:44;;;;;;;31.70;18.13;;;6.00;73.40;;;;;;5041337;28;20025;-61
2022/12/01 07:04:10;;;;;;;33.72;18.17;;;6.00;73.30;;;;;;5043274;28;20117;-60
2022/12/01 07:06:36;;;;;;;29.05;17.00;;;6.00;73.40;;;;;;5042087;28;20085;-61
2022/12/01 07:09:01;;;;;;;31.60;17.17;;;6.00;73.50;;;;;;5038957;28;20500;-62
2022/12/01 07:11:28;;;;;;;31.83;17.63;;;6.00;73.50;;;;;;5048948;28;20022;-63
2022/12/01 07:13:54;;;;;;;31.85;16.88;;;6.00;73.50;;;;;;5036378;28;20026;-61
2022/12/01 07:16:21;;;;;;;31.58;17.58;;;6.00;74.20;;;;;;5036716;28;20037;-63
2022/12/01 07:18:48;;;;;;;33.55;18.25;;;6.00;73.50;;;;;;5039191;28;20026;-61
2022/12/01 07:21:15;;;;;;;31.65;18.05;;;6.00;73.50;;;;;;5043361;28;20041;-63
2022/12/01 07:23:41;;;;;;;31.15;17.42;;;6.00;73.40;;;;;;5049560;28;20026;-60
2022/12/01 07:26:11;;;;;;;27.13;15.95;;;6.00;73.50;;;;;;5041800;28;20029;-61
2022/12/01 07:28:36;;;;;;;33.40;17.90;;;6.00;73.50;;;;;;5036657;28;20029;-61
2022/12/01 07:31:10;;;;;;;29.60;17.10;;;6.00;73.50;;;;;;5039309;28;20029;-62
2022/12/01 07:33:37;;;;;;;35.58;18.02;;;6.00;73.50;;;;;;5037239;28;20379;-61
2022/12/01 07:36:04;;;;;;;32.72;18.92;;;6.00;73.50;;;;;;5040557;28;20056;-61
2022/12/01 07:38:31;;;;;;;34.22;19.17;;;6.10;73.70;;;;;;5043942;28;20044;-61
2022/12/01 07:41:05;;;;;;;33.95;19.55;;;6.10;73.80;;;;;;5037156;28;20032;-60
2022/12/01 07:43:31;;;;;;;39.30;19.67;;;6.10;74.40;;;;;;5042487;28;20018;-63
2022/12/01 07:46:04;;;;;;;34.78;18.73;;;6.10;73.70;;;;;;5045992;28;20448;-63
2022/12/01 07:48:29;;;;;;;31.13;17.50;;;6.20;73.70;;;;;;5045267;28;20013;-62
2022/12/01 07:50:55;;;;;;;32.05;18.02;;;6.20;73.70;;;;;;5032672;28;20064;-62
2022/12/01 07:53:22;;;;;;;34.05;18.92;;;6.20;73.70;;;;;;5034373;28;20472;-62
2022/12/01 07:55:49;;;;;;;32.90;17.88;;;6.20;73.30;;;;;;5040724;28;20017;-62
2022/12/01 07:58:15;;;;;;;37.42;19.83;;;6.20;73.30;;;;;;5038433;28;20088;-62
2022/12/01 08:00:41;;;;;;;37.45;20.02;;;6.20;73.30;;;;;;5037000;28;20044;-62
2022/12/01 08:03:06;;;;;;;29.23;18.02;;;6.20;73.20;;;;;;5037417;28;20037;-62
2022/12/01 08:05:32;;;;;;;32.75;18.80;;;6.20;73.20;;;;;;5018421;28;20430;-62
2022/12/01 08:07:58;;;;;;;32.58;18.73;;;6.20;73.10;;;;;;5035684;28;20104;-62
2022/12/01 08:10:23;;;;;;;35.45;19.42;;;6.20;73.00;;;;;;5044969;28;20110;-62
2022/12/01 08:12:49;;;;;;;35.08;19.20;;;6.10;73.00;;;;;;5038098;28;20030;-63
2022/12/01 08:15:15;;;;;;;32.80;19.05;;;6.10;73.00;;;;;;5015014;28;20033;-62
2022/12/01 08:17:40;;;;;;;37.33;18.90;;;6.10;73.30;;;;;;5035888;28;20049;-62
2022/12/01 08:20:07;;;;;;;33.60;18.40;;;6.10;73.30;;;;;;5042384;28;20469;-62
2022/12/01 08:22:33;;;;;;;30.17;17.85;;;6.10;73.40;;;;;;5039351;28;20030;-62
2022/12/01 08:24:58;;;;;;;33.00;18.48;;;6.10;73.40;;;;;;5036858;28;20033;-62
2022/12/01 08:27:24;;;;;;;38.55;18.15;;;6.10;73.40;;;;;;5039708;28;20067;-62
2022/12/01 08:29:50;;;;;;;32.45;17.55;;;6.10;73.40;;;;;;5035807;28;20021;-62
2022/12/01 08:32:16;;;;;;;34.45;18.63;;;6.10;73.60;;;;;;5042186;28;20249;-62
2022/12/01 08:34:42;;;;;;;35.15;18.23;;;6.10;73.60;;;;;;5018626;28;20040;-62
2022/12/01 08:37:08;;;;;;;31.15;17.40;;;6.10;73.60;;;;;;5033251;28;20021;-62
2022/12/01 08:39:34;;;;;;;31.48;18.50;;;6.10;73.60;;;;;;5044312;28;20041;-62
2022/12/01 08:41:59;;;;;;;36.65;20.90;;;6.10;73.60;;;;;;5044834;28;20060;-62
2022/12/01 08:44:25;;;;;;;34.72;19.73;;;6.20;73.60;;;;;;5024542;28;20390;-63
2022/12/01 08:46:51;;;;;;;34.10;19.05;;;6.20;73.50;;;;;;5026409;28;20170;-62
2022/12/01 08:49:16;;;;;;;38.72;20.30;;;6.20;73.40;;;;;;5033818;28;20033;-61
2022/12/01 08:51:42;;;;;;;34.10;19.98;;;6.20;73.20;;;;;;5036770;28;20028;-61
2022/12/01 08:54:10;;;;;;;40.70;22.85;;;6.20;73.10;;;;;;5043403;28;20036;-61
2022/12/01 08:56:39;;;;;;;37.58;19.75;;;6.20;73.10;;;;;;5036637;28;20081;-62
2022/12/01 08:59:05;;;;;;;60.25;32.90;;;6.20;73.20;;;;;;5042707;28;20093;-61
2022/12/01 09:01:31;;;;;;;40.25;20.95;;;6.20;73.20;;;;;;5042779;28;20060;-62
2022/12/01 09:04:04;;;;;;;40.67;21.27;;;6.20;73.40;;;;;;5047888;28;20024;-63
2022/12/01 09:06:32;;;;;;;37.13;19.55;;;6.20;73.40;;;;;;5045427;28;20037;-61
2022/12/01 09:08:59;;;;;;;33.53;18.63;;;6.20;73.50;;;;;;5040647;28;20042;-61
2022/12/01 09:11:25;;;;;;;30.38;17.75;;;6.20;73.50;;;;;;5042110;28;20094;-61
2022/12/01 09:13:50;;;;;;;33.13;18.38;;;6.20;73.30;;;;;;5039984;28;20025;-61
2022/12/01 09:16:17;;;;;;;36.03;20.40;;;6.20;73.40;;;;;;5026280;28;20745;-61
2022/12/01 09:18:44;;;;;;;32.95;18.20;;;6.20;73.20;;;;;;5053312;28;20044;-62
2022/12/01 09:21:15;;;;;;;31.92;17.08;;;6.20;73.30;;;;;;5043075;28;20033;-62
2022/12/01 09:23:41;;;;;;;31.42;16.95;;;6.30;73.50;;;;;;5052126;28;20033;-63
2022/12/01 09:26:08;;;;;;;31.98;17.08;;;6.30;73.60;;;;;;5047616;28;20595;-62
2022/12/01 09:28:34;;;;;;;31.52;17.50;;;6.30;73.60;;;;;;5047266;28;20083;-61
2022/12/01 09:31:07;;;;;;;30.77;17.30;;;6.30;73.50;;;;;;5042936;28;20030;-63
2022/12/01 09:33:33;;;;;;;31.50;16.75;;;6.40;73.50;;;;;;5049684;28;20025;-62
2022/12/01 09:36:00;;;;;;;32.53;17.50;;;6.40;73.50;;;;;;5049913;28;20031;-61
2022/12/01 09:38:28;;;;;;;29.25;16.52;;;6.50;73.40;;;;;;5046324;28;20095;-62
2022/12/01 09:40:55;;;;;;;31.02;17.20;;;6.50;73.40;;;;;;5050324;28;20029;-63
2022/12/01 09:43:25;;;;;;;33.30;17.33;;;6.50;73.50;;;;;;5034928;28;20049;-63
2022/12/01 09:45:57;;;;;;;28.30;16.80;;;6.60;73.40;;;;;;5038839;28;20029;-62
2022/12/01 09:48:33;;;;;;;27.80;17.38;;;6.60;73.20;;;;;;5045846;28;20044;-62
2022/12/01 09:50:59;;;;;;;32.15;18.63;;;6.60;73.10;;;;;;5046586;28;20038;-63
2022/12/01 09:53:27;;;;;;;32.28;18.05;;;6.70;73.10;;;;;;5042034;28;20059;-63
2022/12/01 09:55:55;;;;;;;39.92;22.02;;;6.70;73.20;;;;;;5046630;28;20022;-61
2022/12/01 09:58:25;;;;;;;34.33;18.65;;;6.80;73.40;;;;;;5039354;28;20029;-62
2022/12/01 10:00:53;;;;;;;35.33;19.48;;;6.80;73.50;;;;;;5037908;28;20032;-61
2022/12/01 10:03:24;;;;;;;37.78;20.25;;;6.90;73.50;;;;;;5044888;28;20123;-62
2022/12/01 10:05:54;;;;;;;46.13;22.38;;;6.90;73.80;;;;;;5045141;28;20037;-62
2022/12/01 10:08:25;;;;;;;54.20;25.52;;;7.00;72.80;;;;;;5041220;28;20030;-63
2022/12/01 10:10:54;;;;;;;42.17;21.50;;;7.00;72.70;;;;;;5044128;28;20539;-63
2022/12/01 10:13:23;;;;;;;33.97;18.95;;;7.10;72.70;;;;;;5050647;28;20032;-62
2022/12/01 10:16:10;;;;;;;32.00;18.00;;;7.10;72.80;;;;;;5048393;28;20120;-61
2022/12/01 10:18:49;;;;;;;30.10;17.75;;;7.20;72.40;;;;;;5040282;28;20083;-61
2022/12/01 10:21:58;;;;;;;31.25;16.33;;;7.20;72.50;;;;;;5043876;28;20029;-62
2022/12/01 10:24:32;;;;;;;29.73;16.80;;;7.20;72.30;;;;;;5031789;28;20067;-62
2022/12/01 10:27:16;;;;;;;22.80;12.87;;;7.30;72.40;;;;;;5031324;28;20435;-61
2022/12/01 10:29:48;;;;;;;31.70;16.20;;;7.30;72.00;;;;;;5039170;28;20029;-63
2022/12/01 10:32:23;;;;;;;29.25;17.02;;;7.30;72.20;;;;;;5037790;28;20090;-62
2022/12/01 10:34:48;;;;;;;29.27;17.08;;;7.40;72.00;;;;;;5043507;28;20143;-61
2022/12/01 10:37:21;;;;;;;33.80;18.38;;;7.40;72.00;;;;;;5035940;28;20034;-61
2022/12/01 10:39:50;;;;;;;33.88;17.38;;;7.40;71.70;;;;;;5035741;28;20021;-61
2022/12/01 10:42:23;;;;;;;28.75;16.33;;;7.40;72.10;;;;;;5037908;28;20444;-61
2022/12/01 10:44:52;;;;;;;29.77;16.23;;;7.40;72.00;;;;;;5039100;28;20021;-62
2022/12/01 10:47:24;;;;;;;29.15;16.90;;;7.50;71.90;;;;;;5040082;28;20025;-62
2022/12/01 10:49:50;;;;;;;30.35;18.17;;;7.50;71.80;;;;;;5040455;28;20021;-64
2022/12/01 10:52:36;;;;;;;34.50;17.55;;;7.50;71.80;;;;;;5034681;28;20037;-63
2022/12/01 10:55:30;;;;;;;50.55;25.73;;;7.60;71.40;;;;;;5024030;28;20026;-63
2022/12/01 10:57:58;;;;;;;34.10;19.02;;;7.60;71.90;;;;;;5037177;28;20375;-62
2022/12/01 11:00:40;;;;;;;29.27;16.88;;;7.60;71.70;;;;;;5040968;28;20022;-62
2022/12/01 11:03:05;;;;;;;29.25;16.92;;;7.60;71.50;;;;;;5038376;28;20063;-63
2022/12/01 11:05:39;;;;;;;29.83;17.48;;;7.60;71.50;;;;;;5042589;28;20025;-63
2022/12/01 11:08:05;;;;;;;30.40;17.13;;;7.70;71.40;;;;;;5038399;28;20030;-63
2022/12/01 11:10:32;;;;;;;33.38;18.40;;;7.70;71.50;;;;;;5050761;28;20373;-63
2022/12/01 11:13:27;;;;;;;34.75;18.90;;;7.70;71.40;;;;;;5045770;28;20715;-62
2022/12/01 11:15:54;;;;;;;33.08;17.20;;;7.70;71.20;;;;;;5036262;28;20029;-63
2022/12/01 11:18:38;;;;;;;39.22;19.23;;;7.80;71.60;;;;;;5050365;28;20030;-63
2022/12/01 11:21:24;;;;;;;29.85;16.83;;;7.80;71.30;;;;;;5039625;28;20025;-63
2022/12/01 11:23:52;;;;;;;27.42;15.85;;;7.80;70.90;;;;;;5042230;28;20033;-64
2022/12/01 11:26:30;;;;;;;31.60;17.55;;;7.80;71.10;;;;;;5042374;28;20480;-63
2022/12/01 11:29:04;;;;;;;29.63;17.38;;;7.80;70.90;;;;;;5016654;28;20021;-62
2022/12/01 11:31:46;;;;;;;28.40;16.10;;;7.80;70.70;;;;;;5020976;28;20035;-63
2022/12/01 11:34:46;;;;;;;27.88;15.77;;;7.80;70.30;;;;;;5039221;28;20033;-63
2022/12/01 11:37:17;;;;;;;32.80;17.48;;;7.80;69.80;;;;;;5019059;28;20124;-62
2022/12/01 11:39:45;;;;;;;33.38;17.15;;;7.80;70.70;;;;;;5018770;28;20036;-63
2022/12/01 11:42:10;;;;;;;33.85;17.77;;;7.80;70.90;;;;;;5044475;28;20120;-63
2022/12/01 11:44:37;;;;;;;31.40;18.63;;;7.80;70.70;;;;;;5042001;28;20094;-63
2022/12/01 11:47:17;;;;;;;34.17;17.35;;;7.90;70.60;;;;;;5039518;28;20021;-63
2022/12/01 11:49:47;;;;;;;28.50;16.88;;;7.80;70.50;;;;;;5020804;28;20024;-64
2022/12/01 11:52:30;;;;;;;34.65;19.63;;;7.80;70.80;;;;;;5051692;28;20052;-61
2022/12/01 11:54:58;;;;;;;30.17;17.70;;;7.90;70.50;;;;;;5039036;28;20036;-61
2022/12/01 11:57:26;;;;;;;30.23;17.63;;;7.90;70.60;;;;;;5036086;28;20055;-62
2022/12/01 11:59:52;;;;;;;27.98;17.10;;;7.90;70.40;;;;;;5041554;28;20381;-62
2022/12/01 12:02:33;;;;;;;33.65;18.38;;;7.90;70.30;;;;;;5038514;28;20046;-63
2022/12/01 12:05:29;;;;;;;33.00;16.92;;;7.80;70.00;;;;;;5035776;28;20418;-62
2022/12/01 12:08:16;;;;;;;32.03;17.85;;;7.80;70.20;;;;;;5031687;28;20025;-62
2022/12/01 12:11:10;;;;;;;31.45;16.00;;;7.80;70.70;;;;;;5036727;28;20498;-62
2022/12/01 12:13:49;;;;;;;29.00;16.40;;;7.80;70.70;;;;;;5035715;28;20041;-61
2022/12/01 12:16:39;;;;;;;26.00;15.13;;;7.80;70.70;;;;;;5048911;28;20022;-62
2022/12/01 12:19:13;;;;;;;23.98;14.35;;;7.80;70.10;;;;;;5033670;28;20157;-63
2022/12/01 12:22:10;;;;;;;29.67;16.98;;;7.80;70.40;;;;;;5039794;28;20421;-60
2022/12/01 12:24:43;;;;;;;25.00;15.43;;;7.80;70.30;;;;;;5039420;28;20118;-63
2022/12/01 12:27:25;;;;;;;24.30;14.88;;;7.80;70.50;;;;;;5043556;28;20060;-63
2022/12/01 12:30:25;;;;;;;25.10;14.48;;;7.80;70.50;;;;;;5048210;28;20025;-63
2022/12/01 12:33:12;;;;;;;24.75;14.02;;;7.80;70.40;;;;;;5044218;28;20171;-63
2022/12/01 12:35:49;;;;;;;26.33;14.90;;;7.80;70.30;;;;;;5039469;28;20051;-63
2022/12/01 12:38:29;;;;;;;25.45;15.38;;;7.80;70.70;;;;;;5048976;28;20029;-63
2022/12/01 12:41:13;;;;;;;26.42;16.63;;;7.80;70.70;;;;;;5023205;28;20049;-64
2022/12/01 12:43:45;;;;;;;26.95;14.57;;;7.80;70.10;;;;;;5046505;28;20037;-63
2022/12/01 12:46:17;;;;;;;25.40;14.95;;;7.80;70.70;;;;;;5034058;28;20034;-63
2022/12/01 12:48:42;;;;;;;26.80;15.55;;;7.80;70.80;;;;;;5017545;28;20034;-63
2022/12/01 12:51:45;;;;;;;24.33;14.60;;;7.80;70.90;;;;;;5029664;28;20048;-63
2022/12/01 12:54:11;;;;;;;26.33;14.68;;;7.80;70.60;;;;;;5026516;28;20033;-63
2022/12/01 12:56:43;;;;;;;26.30;15.00;;;7.90;70.90;;;;;;5033740;28;20103;-62